Time;durP1;ratioP1;P1;durP2;ratioP2;P2;SDS_P1;SDS_P2;PMS_P1;PMS_P2;Temp;Humidity;BMP_temperature;BMP_pressure;BME280_temperature;BME280_humidity;BME280_pressure;Samples;Min_cycle;Max_cycle;Signal;HPM_P1;HPM_P2
2023/12/02 00:00:01;;;;;;;;;42.50;33.50;;;;;4.10;50.39;100399.69;5060441;28;45361;-64
2023/12/02 00:02:27;;;;;;;;;39.50;33.50;;;;;4.12;49.99;100413.56;5059333;28;45497;-65
2023/12/02 00:04:52;;;;;;;;;47.75;36.00;;;;;4.35;49.59;100444.34;5059365;28;45380;-66
2023/12/02 00:07:18;;;;;;;;;46.50;35.25;;;;;3.76;49.59;100378.19;5060099;28;45450;-63
2023/12/02 00:09:44;;;;;;;;;49.00;35.25;;;;;3.60;49.96;100363.13;5060457;28;45461;-65
2023/12/02 00:12:10;;;;;;;;;45.00;35.25;;;;;3.88;49.89;100424.22;5060348;28;45518;-67
2023/12/02 00:14:35;;;;;;;;;41.75;31.75;;;;;4.10;50.23;100451.53;5059762;28;45471;-64
2023/12/02 00:17:01;;;;;;;;;39.50;32.50;;;;;3.50;50.75;100348.19;5057339;28;47485;-65
2023/12/02 00:19:27;;;;;;;;;42.00;30.25;;;;;4.18;50.88;100462.09;5059802;28;45497;-64
2023/12/02 00:21:52;;;;;;;;;36.50;30.75;;;;;3.88;50.26;100400.06;5059164;28;45545;-68
2023/12/02 00:24:18;;;;;;;;;48.75;38.00;;;;;4.19;50.23;100446.56;5058993;28;45514;-67
2023/12/02 00:26:43;;;;;;;;;44.75;34.50;;;;;4.14;50.31;100442.13;5060172;28;46264;-65
2023/12/02 00:29:10;;;;;;;;;42.00;35.00;;;;;3.85;50.57;100387.03;5057378;28;45445;-65
2023/12/02 00:31:35;;;;;;;;;43.00;35.00;;;;;4.19;50.76;100428.41;5061009;28;45401;-65
2023/12/02 00:34:04;;;;;;;;;48.00;36.00;;;;;3.98;50.14;100386.47;5060166;28;45481;-65
2023/12/02 00:36:32;;;;;;;;;47.75;39.00;;;;;4.40;50.39;100463.47;5075230;27;45764;-65
2023/12/02 00:38:57;;;;;;;;;49.25;37.00;;;;;3.93;49.85;100386.34;5058410;28;45420;-66
2023/12/02 00:41:23;;;;;;;;;46.25;36.75;;;;;4.06;49.76;100407.34;5058891;28;45477;-65
2023/12/02 00:43:53;;;;;;;;;48.75;35.75;;;;;4.32;50.25;100454.63;5053447;28;45458;-65
2023/12/02 00:46:18;;;;;;;;;45.50;34.75;;;;;4.34;50.42;100456.44;5050255;28;45959;-66
2023/12/02 00:48:52;;;;;;;;;40.50;34.50;;;;;4.33;49.40;100451.19;5057804;28;45378;-66
2023/12/02 00:51:18;;;;;;;;;45.50;35.50;;;;;4.30;50.14;100440.78;5058412;28;45358;-65
2023/12/02 00:53:44;;;;;;;;;44.50;35.50;;;;;3.95;49.98;100383.81;5058409;28;45730;-66
2023/12/02 00:56:11;;;;;;;;;52.00;40.50;;;;;4.32;50.03;100459.81;5058360;28;45376;-65
2023/12/02 00:58:36;;;;;;;;;47.50;37.25;;;;;4.30;49.17;100454.59;5058307;28;45532;-69
2023/12/02 01:01:03;;;;;;;;;50.50;38.50;;;;;4.10;50.02;100415.25;5059457;28;45429;-64
2023/12/02 01:03:28;;;;;;;;;50.00;39.00;;;;;4.10;49.82;100410.06;5058271;28;45858;-65
2023/12/02 01:05:54;;;;;;;;;38.00;32.00;;;;;3.79;50.68;100360.13;5058127;28;45399;-65
2023/12/02 01:08:20;;;;;;;;;49.00;35.75;;;;;4.21;57.31;100415.50;5059397;28;45553;-65
2023/12/02 01:10:46;;;;;;;;;54.50;40.00;;;;;4.51;51.36;100453.31;5059304;28;45489;-64
2023/12/02 01:13:12;;;;;;;;;51.25;36.75;;;;;4.62;54.05;100449.25;5058140;28;45508;-65
2023/12/02 01:15:37;;;;;;;;;49.75;38.50;;;;;4.59;51.67;100439.69;5049817;28;46207;-64
2023/12/02 01:18:03;;;;;;;;;49.00;38.75;;;;;4.54;50.31;100451.69;5043160;28;45530;-65
2023/12/02 01:20:28;;;;;;;;;50.00;38.50;;;;;4.49;50.18;100465.41;5051144;28;45204;-64
2023/12/02 01:22:54;;;;;;;;;47.00;36.00;;;;;4.48;49.80;100477.47;5046901;28;45224;-65
2023/12/02 01:25:19;;;;;;;;;49.75;35.75;;;;;4.39;49.67;100469.47;5050787;28;45424;-66
2023/12/02 01:27:45;;;;;;;;;46.50;33.25;;;;;4.41;49.66;100470.38;5048423;28;45342;-65
2023/12/02 01:30:10;;;;;;;;;42.75;33.00;;;;;4.42;49.66;100479.94;5047598;28;45394;-65
2023/12/02 01:32:36;;;;;;;;;38.50;32.00;;;;;4.37;49.09;100471.19;5051052;28;45484;-63
2023/12/02 01:35:03;;;;;;;;;43.25;32.50;;;;;4.34;49.06;100482.38;5046600;28;46187;-65
2023/12/02 01:37:28;;;;;;;;;41.75;32.00;;;;;4.06;49.04;100439.38;5050865;28;45625;-64
2023/12/02 01:39:54;;;;;;;;;40.75;32.75;;;;;4.21;48.35;100456.97;5047118;28;45558;-63
2023/12/02 01:42:23;;;;;;;;;41.25;31.75;;;;;4.33;48.72;100496.16;5050805;28;46895;-64
2023/12/02 01:44:49;;;;;;;;;42.75;32.25;;;;;4.29;49.04;100498.63;5040221;28;46097;-65
2023/12/02 01:47:16;;;;;;;;;42.50;32.00;;;;;4.04;48.96;100449.69;5058194;28;45535;-64
2023/12/02 01:49:43;;;;;;;;;14.00;5.00;;;;;4.27;48.67;100485.63;5074329;28;45530;-64
2023/12/02 01:52:12;;;;;;;;;50.75;39.75;;;;;4.23;48.57;100501.97;5057680;28;45424;-63
2023/12/02 01:54:38;;;;;;;;;43.75;36.00;;;;;4.19;48.93;100513.97;5057099;28;45518;-63
2023/12/02 01:57:03;;;;;;;;;50.50;37.50;;;;;4.09;49.23;100512.00;5056596;28;45463;-64
2023/12/02 01:59:36;;;;;;;;;51.50;38.00;;;;;3.82;49.59;100496.66;5056698;28;45425;-63
2023/12/02 02:02:02;;;;;;;;;48.50;36.75;;;;;3.91;50.17;100527.06;5043764;28;45539;-63
2023/12/02 02:04:27;;;;;;;;;45.50;35.75;;;;;3.63;50.19;100489.22;5041062;28;46140;-64
2023/12/02 02:06:54;;;;;;;;;46.00;36.00;;;;;3.88;50.32;100527.00;5045550;28;45424;-65
2023/12/02 02:09:20;;;;;;;;;49.25;37.50;;;;;3.75;50.44;100505.06;5045237;28;45437;-65
2023/12/02 02:11:49;;;;;;;;;43.50;35.00;;;;;3.97;50.16;100542.78;5037060;28;45449;-64
2023/12/02 02:14:15;;;;;;;;;48.25;33.75;;;;;3.99;50.47;100539.41;5037914;28;45520;-65
2023/12/02 02:16:41;;;;;;;;;46.25;36.00;;;;;3.96;50.61;100530.66;5039252;28;45687;-64
2023/12/02 02:19:10;;;;;;;;;58.75;39.00;;;;;4.00;50.27;100546.31;5040199;28;45821;-64
2023/12/02 02:21:35;;;;;;;;;48.00;36.00;;;;;4.03;50.84;100548.13;5045667;28;45671;-65
2023/12/02 02:24:01;;;;;;;;;47.00;36.75;;;;;3.95;51.10;100528.91;5045217;28;45504;-65
2023/12/02 02:26:26;;;;;;;;;49.50;35.25;;;;;4.09;50.83;100553.47;5038593;28;45376;-65
2023/12/02 02:28:52;;;;;;;;;37.25;32.75;;;;;4.11;50.85;100554.38;5038809;28;45302;-65
2023/12/02 02:31:17;;;;;;;;;49.00;33.00;;;;;4.10;50.95;100554.34;5040115;28;45512;-64
2023/12/02 02:33:43;;;;;;;;;53.00;39.25;;;;;4.16;50.66;100570.06;5045414;28;45517;-66
2023/12/02 02:36:09;;;;;;;;;49.25;39.00;;;;;4.09;50.89;100569.00;5041979;28;45344;-63
2023/12/02 02:38:34;;;;;;;;;46.25;35.75;;;;;4.07;51.49;100575.00;5038450;28;45449;-65
2023/12/02 02:41:00;;;;;;;;;52.00;37.50;;;;;4.07;50.51;100569.81;5040008;28;45449;-63
2023/12/02 02:43:25;;;;;;;;;44.25;37.25;;;;;3.95;50.23;100558.28;5038766;28;46092;-63
2023/12/02 02:45:51;;;;;;;;;47.00;35.50;;;;;4.01;50.28;100570.50;5044295;28;45636;-63
2023/12/02 02:48:16;;;;;;;;;50.00;36.00;;;;;4.03;50.67;100576.63;5056433;28;45525;-63
2023/12/02 02:50:43;;;;;;;;;50.25;37.75;;;;;3.84;49.90;100567.47;5042508;28;45628;-64
2023/12/02 02:53:08;;;;;;;;;54.50;39.00;;;;;3.81;49.91;100572.59;5056524;28;45993;-64
2023/12/02 02:55:34;;;;;;;;;48.50;34.25;;;;;3.77;50.75;100584.59;5056008;28;45461;-64
2023/12/02 02:58:06;;;;;;;;;44.25;32.50;;;;;3.80;50.74;100591.59;5056143;28;45392;-64
2023/12/02 03:00:33;;;;;;;;;52.25;39.50;;;;;3.78;50.40;100586.34;5073507;27;45630;-64
2023/12/02 03:02:58;;;;;;;;;49.00;32.75;;;;;3.79;50.80;100589.81;5056725;28;46539;-64
2023/12/02 03:05:30;;;;;;;;;48.75;36.25;;;;;3.73;51.10;100593.13;5056632;28;45269;-65
2023/12/02 03:07:55;;;;;;;;;45.50;35.75;;;;;3.81;50.87;100594.19;5056838;27;45574;-64
2023/12/02 03:10:23;;;;;;;;;52.00;39.00;;;;;3.75;50.57;100596.63;5056786;28;45510;-65
2023/12/02 03:12:48;;;;;;;;;55.00;39.50;;;;;3.62;50.85;100591.94;5056420;28;46510;-66
2023/12/02 03:15:18;;;;;;;;;54.75;39.50;;;;;3.14;51.37;100536.22;5058064;28;45334;-66
2023/12/02 03:17:44;;;;;;;;;51.25;38.25;;;;;3.47;51.96;100586.34;5058587;28;45560;-66
2023/12/02 03:20:11;;;;;;;;;48.25;37.50;;;;;3.52;52.08;100589.94;5059178;28;45362;-64
2023/12/02 03:22:37;;;;;;;;;45.00;37.00;;;;;3.55;52.76;100588.28;5057696;28;45647;-63
2023/12/02 03:25:06;;;;;;;;;53.25;37.75;;;;;3.58;53.04;100591.00;5045458;28;45617;-64
2023/12/02 03:27:32;;;;;;;;;48.50;35.75;;;;;3.53;52.77;100576.13;5040744;28;46031;-66
2023/12/02 03:29:57;;;;;;;;;52.75;38.75;;;;;3.55;53.05;100582.25;5043674;28;45522;-67
2023/12/02 03:32:26;;;;;;;;;52.75;37.00;;;;;3.06;52.88;100485.06;5069151;28;47873;-65
2023/12/02 03:34:52;;;;;;;;;49.50;37.50;;;;;3.52;53.20;100561.44;5048063;28;45240;-65
2023/12/02 03:37:18;;;;;;;;;51.75;38.25;;;;;3.69;53.01;100582.63;5056015;28;45799;-65
2023/12/02 03:39:44;;;;;;;;;52.75;40.00;;;;;3.33;52.99;100524.69;5057739;28;45531;-65
2023/12/02 03:42:10;;;;;;;;;49.25;39.00;;;;;3.66;53.04;100579.97;5043130;28;45687;-65
2023/12/02 03:44:36;;;;;;;;;50.25;37.50;;;;;3.83;53.60;100602.88;5057648;28;45335;-65
2023/12/02 03:47:03;;;;;;;;;47.25;38.00;;;;;3.74;53.16;100583.63;5057403;28;45468;-65
2023/12/02 03:49:32;;;;;;;;;45.75;37.00;;;;;3.68;52.87;100571.41;5057650;28;45322;-64
2023/12/02 03:51:59;;;;;;;;;49.00;37.00;;;;;3.94;53.30;100610.06;5057053;28;45460;-66
2023/12/02 03:54:25;;;;;;;;;46.00;36.25;;;;;3.32;52.87;100510.00;5056895;28;45489;-65
2023/12/02 03:56:50;;;;;;;;;50.75;39.00;;;;;3.96;51.84;100621.34;5055729;28;45354;-64
2023/12/02 03:59:16;;;;;;;;;51.75;37.25;;;;;3.93;52.37;100627.34;5042003;28;45330;-64
2023/12/02 04:01:41;;;;;;;;;50.25;36.00;;;;;3.91;52.31;100630.72;5055521;28;45460;-65
2023/12/02 04:04:08;;;;;;;;;52.25;36.75;;;;;3.80;51.37;100620.06;5056107;28;45871;-65
2023/12/02 04:06:33;;;;;;;;;52.75;39.25;;;;;3.58;51.42;100598.75;5056411;28;45664;-64
2023/12/02 04:08:59;;;;;;;;;50.75;40.00;;;;;3.70;51.51;100636.19;5060471;28;45493;-65
2023/12/02 04:11:24;;;;;;;;;48.50;38.50;;;;;3.65;52.23;100636.03;5059544;28;45733;-64
2023/12/02 04:13:50;;;;;;;;;50.00;39.00;;;;;3.61;52.66;100640.28;5059865;28;45383;-64
2023/12/02 04:16:16;;;;;;;;;49.25;38.00;;;;;3.58;52.40;100636.72;5059418;28;45350;-64
2023/12/02 04:18:41;;;;;;;;;46.00;36.75;;;;;3.53;53.00;100641.75;5074840;28;45460;-64
2023/12/02 04:21:08;;;;;;;;;48.75;36.75;;;;;3.58;52.84;100647.97;5059193;28;46449;-64
2023/12/02 04:23:35;;;;;;;;;48.25;38.50;;;;;3.55;53.40;100649.56;5059176;28;45449;-65
2023/12/02 04:26:01;;;;;;;;;47.75;35.75;;;;;3.50;52.94;100645.97;5074491;27;45334;-65
2023/12/02 04:28:30;;;;;;;;;51.00;39.00;;;;;3.56;53.58;100660.00;5048555;28;45600;-64
2023/12/02 04:30:57;;;;;;;;;56.25;40.75;;;;;3.13;52.96;100593.09;5058712;28;46255;-64
2023/12/02 04:33:22;;;;;;;;;55.25;41.50;;;;;3.54;53.57;100674.59;5044120;28;45513;-64
2023/12/02 04:35:48;;;;;;;;;55.25;40.25;;;;;3.51;53.61;100664.16;5058947;28;45306;-66
2023/12/02 04:38:13;;;;;;;;;49.00;37.75;;;;;3.47;53.52;100664.03;5059203;28;45485;-64
2023/12/02 04:40:39;;;;;;;;;52.50;39.75;;;;;3.33;54.37;100648.94;5060016;28;45545;-63
2023/12/02 04:43:04;;;;;;;;;55.00;43.00;;;;;3.49;54.11;100677.88;5059930;28;45394;-65
2023/12/02 04:45:30;;;;;;;;;52.25;36.50;;;;;3.44;53.72;100680.34;5059142;28;45429;-65
2023/12/02 04:47:56;;;;;;;;;49.75;39.00;;;;;3.42;53.39;100691.47;5058885;28;45290;-64
2023/12/02 04:50:21;;;;;;;;;56.00;38.50;;;;;3.37;54.26;100694.81;5074279;28;47022;-66
2023/12/02 04:52:47;;;;;;;;;53.75;40.25;;;;;3.35;54.19;100696.47;5060467;28;45236;-65
2023/12/02 04:55:13;;;;;;;;;51.75;39.00;;;;;3.32;53.63;100698.06;5059046;28;45575;-64
2023/12/02 04:57:38;;;;;;;;;54.00;40.75;;;;;3.31;54.34;100704.97;5059322;28;45373;-65
2023/12/02 05:00:13;;;;;;;;;52.25;38.75;;;;;3.31;54.46;100702.38;5060001;28;46014;-64
2023/12/02 05:02:41;;;;;;;;;44.25;33.50;;;;;3.33;53.83;100718.84;5059744;28;45562;-65
2023/12/02 05:05:07;;;;;;;;;52.75;37.25;;;;;3.34;54.46;100717.13;5059720;28;45467;-66
2023/12/02 05:07:35;;;;;;;;;53.00;36.25;;;;;3.35;54.43;100727.53;5057906;28;45234;-65
2023/12/02 05:10:01;;;;;;;;;52.25;38.00;;;;;3.31;55.01;100723.09;5058255;28;46223;-65
2023/12/02 05:12:26;;;;;;;;;51.00;37.00;;;;;3.40;54.77;100733.72;5059709;28;45322;-64
2023/12/02 05:14:52;;;;;;;;;48.75;34.50;;;;;3.38;54.60;100735.41;5058957;28;45475;-66
2023/12/02 05:17:17;;;;;;;;;52.25;37.25;;;;;3.44;54.49;100737.31;5060211;28;45492;-66
2023/12/02 05:19:43;;;;;;;;;51.00;37.75;;;;;3.39;54.51;100734.59;5056957;28;46027;-65
2023/12/02 05:22:08;;;;;;;;;51.00;39.75;;;;;3.42;55.22;100751.00;5058351;28;45404;-64
2023/12/02 05:24:35;;;;;;;;;55.25;40.50;;;;;3.27;55.03;100736.75;5059745;27;45409;-65
2023/12/02 05:27:00;;;;;;;;;58.00;40.25;;;;;3.30;54.68;100741.16;5059151;28;45528;-66
2023/12/02 05:29:39;;;;;;;;;55.25;41.50;;;;;3.25;54.56;100743.63;5052124;28;45480;-65
2023/12/02 05:32:14;;;;;;;;;54.75;39.00;;;;;3.29;55.75;100745.47;5044176;28;45474;-65
2023/12/02 05:34:40;;;;;;;;;52.25;36.25;;;;;2.69;55.42;100641.78;5057101;28;45418;-67
2023/12/02 05:37:06;;;;;;;;;59.00;40.25;;;;;3.39;55.58;100767.34;5056528;28;45392;-65
2023/12/02 05:39:35;;;;;;;;;47.00;36.25;;;;;3.40;55.44;100769.13;5057686;28;45481;-67
2023/12/02 05:42:00;;;;;;;;;55.50;38.00;;;;;3.38;55.29;100774.22;5057365;27;45503;-65
2023/12/02 05:44:26;;;;;;;;;55.75;41.00;;;;;3.32;55.67;100773.16;5056180;28;45452;-65
2023/12/02 05:46:52;;;;;;;;;47.75;36.00;;;;;3.08;55.63;100742.19;5056163;28;45477;-65
2023/12/02 05:49:21;;;;;;;;;54.25;40.00;;;;;3.25;55.34;100768.59;5058029;28;45597;-65
2023/12/02 05:51:50;;;;;;;;;53.50;38.75;;;;;3.29;55.44;100786.00;5059701;28;45402;-65
2023/12/02 05:54:16;;;;;;;;;59.75;40.00;;;;;3.33;55.27;100795.63;5075297;27;45451;-65
2023/12/02 05:56:42;;;;;;;;;50.00;39.00;;;;;2.80;55.19;100714.53;5059334;28;45435;-66
2023/12/02 05:59:12;;;;;;;;;51.50;39.25;;;;;3.30;56.00;100801.59;5057280;28;46348;-65
2023/12/02 06:01:37;;;;;;;;;54.25;39.00;;;;;3.30;55.21;100817.13;5061266;28;45475;-65
2023/12/02 06:04:03;;;;;;;;;54.25;38.75;;;;;3.29;55.57;100819.66;5059499;28;45517;-67
2023/12/02 06:06:29;;;;;;;;;50.00;38.00;;;;;3.27;56.14;100822.19;5058323;28;45506;-66
2023/12/02 06:08:55;;;;;;;;;54.50;40.00;;;;;2.22;56.01;100654.00;5058887;28;45362;-65
2023/12/02 06:11:24;;;;;;;;;57.00;41.75;;;;;3.20;56.63;100833.16;5058113;28;45451;-64
2023/12/02 06:13:50;;;;;;;;;49.00;37.50;;;;;2.73;56.40;100757.44;5057604;28;45758;-64
2023/12/02 06:16:15;;;;;;;;;59.00;40.50;;;;;2.94;56.20;100796.06;5057915;28;45508;-65
2023/12/02 06:18:41;;;;;;;;;55.25;41.25;;;;;3.02;56.21;100823.09;5057751;28;46049;-65
2023/12/02 06:21:07;;;;;;;;;54.75;41.50;;;;;2.81;55.65;100788.72;5057194;28;45474;-64
2023/12/02 06:23:36;;;;;;;;;48.75;38.25;;;;;3.15;56.35;100851.13;5057421;28;45260;-63
2023/12/02 06:26:02;;;;;;;;;56.50;41.00;;;;;2.75;56.02;100774.78;5057382;28;45566;-64
2023/12/02 06:28:33;;;;;;;;;53.75;41.25;;;;;3.08;56.26;100840.53;5049603;28;45469;-65
2023/12/02 06:30:59;;;;;;;;;59.25;42.25;;;;;3.07;56.15;100851.72;5056800;28;45439;-65
2023/12/02 06:33:28;;;;;;;;;54.75;40.75;;;;;3.08;56.20;100856.91;5042826;28;45405;-65
2023/12/02 06:35:54;;;;;;;;;58.50;41.50;;;;;3.07;55.99;100855.19;5057686;28;45556;-66
2023/12/02 06:38:19;;;;;;;;;56.00;39.75;;;;;3.11;55.97;100869.13;5056832;28;45546;-65
2023/12/02 06:40:53;;;;;;;;;51.75;38.00;;;;;2.84;56.65;100828.50;5056797;28;45574;-65
2023/12/02 06:43:19;;;;;;;;;42.50;29.75;;;;;3.11;56.08;100874.28;5055936;28;45380;-65
2023/12/02 06:45:45;;;;;;;;;55.50;39.50;;;;;2.92;56.34;100857.25;5057467;28;45256;-66
2023/12/02 06:48:11;;;;;;;;;58.00;40.50;;;;;3.13;56.30;100883.88;5056392;28;45991;-66
2023/12/02 06:50:36;;;;;;;;;53.75;39.75;;;;;3.15;56.26;100876.13;5072230;27;45477;-66
2023/12/02 06:53:02;;;;;;;;;55.25;41.00;;;;;3.11;56.76;100875.16;5056960;28;45941;-66
2023/12/02 06:55:31;;;;;;;;;59.00;43.25;;;;;2.97;56.53;100864.34;5056958;28;45477;-65
2023/12/02 06:57:59;;;;;;;;;58.75;42.50;;;;;2.72;56.54;100839.31;5056827;28;46120;-65
2023/12/02 07:00:25;;;;;;;;;53.00;39.25;;;;;3.05;56.21;100899.94;5072917;27;45305;-64
2023/12/02 07:02:51;;;;;;;;;54.25;40.75;;;;;3.05;56.82;100900.81;5073905;27;45395;-66
2023/12/02 07:05:17;;;;;;;;;52.00;39.75;;;;;3.07;56.16;100900.88;5058199;28;45225;-65
2023/12/02 07:07:43;;;;;;;;;58.00;42.00;;;;;3.05;56.29;100902.53;5057102;28;45519;-65
2023/12/02 07:10:09;;;;;;;;;47.50;39.00;;;;;3.01;56.12;100909.28;5056752;28;45365;-63
2023/12/02 07:12:36;;;;;;;;;58.75;43.75;;;;;2.98;56.61;100910.06;5058227;28;45373;-65
2023/12/02 07:15:06;;;;;;;;;56.25;42.00;;;;;2.59;56.24;100850.06;5059100;28;45493;-66
2023/12/02 07:17:32;;;;;;;;;53.25;41.00;;;;;2.87;56.55;100905.34;5076575;28;47077;-66
2023/12/02 07:19:59;;;;;;;;;57.75;41.25;;;;;3.00;56.33;100927.38;5058796;28;45702;-64
2023/12/02 07:22:25;;;;;;;;;55.50;40.50;;;;;2.33;56.65;100821.53;5058334;28;45494;-65
2023/12/02 07:24:50;;;;;;;;;58.75;40.00;;;;;3.00;56.41;100940.31;5060788;28;45383;-65
2023/12/02 07:27:16;;;;;;;;;60.75;43.00;;;;;2.78;56.83;100897.25;5058482;28;45395;-64
2023/12/02 07:29:41;;;;;;;;;56.50;41.75;;;;;2.88;56.56;100918.34;5052840;28;45266;-64
2023/12/02 07:32:13;;;;;;;;;57.50;41.00;;;;;2.90;56.14;100921.88;5053145;28;45656;-66
2023/12/02 07:34:45;;;;;;;;;53.25;40.25;;;;;3.04;56.39;100943.06;5048602;28;45300;-65
2023/12/02 07:37:10;;;;;;;;;58.00;42.75;;;;;2.98;56.39;100935.94;5055954;28;45453;-67
2023/12/02 07:40:04;;;;;;;;;59.50;41.00;;;;;2.81;56.09;100910.31;5056245;28;45539;-65
2023/12/02 07:42:30;;;;;;;;;56.25;40.25;;;;;3.04;56.14;100942.16;5057456;28;45383;-66
2023/12/02 07:44:56;;;;;;;;;50.50;38.75;;;;;2.85;55.83;100919.91;5059262;28;45495;-66
2023/12/02 07:47:23;;;;;;;;;54.75;36.50;;;;;3.07;55.60;100958.69;5059640;28;46280;-65
2023/12/02 07:49:52;;;;;;;;;56.25;39.25;;;;;2.91;55.98;100938.25;5059971;28;45627;-65
2023/12/02 07:52:19;;;;;;;;;60.50;43.25;;;;;3.06;55.87;100961.22;5060563;27;45640;-65
2023/12/02 07:54:45;;;;;;;;;55.00;41.00;;;;;3.07;55.95;100958.69;5060263;28;45440;-65
2023/12/02 07:57:10;;;;;;;;;49.25;37.00;;;;;3.10;55.86;100969.16;5061094;28;45591;-65
2023/12/02 07:59:36;;;;;;;;;60.50;41.75;;;;;2.94;55.37;100944.44;5061215;28;45433;-65
2023/12/02 08:02:02;;;;;;;;;58.00;43.25;;;;;3.08;55.81;100970.78;5060793;28;45517;-65
2023/12/02 08:04:27;;;;;;;;;59.50;43.25;;;;;3.02;56.05;100967.13;5060559;28;45421;-65
2023/12/02 08:06:53;;;;;;;;;49.75;36.25;;;;;3.20;55.64;100988.47;5059919;28;45432;-66
2023/12/02 08:09:18;;;;;;;;;57.50;43.25;;;;;3.22;55.23;100980.78;5058124;28;45481;-64
2023/12/02 08:11:44;;;;;;;;;57.50;42.00;;;;;3.19;55.85;100968.59;5059347;28;45537;-67
2023/12/02 08:14:09;;;;;;;;;60.25;44.50;;;;;3.30;55.75;100967.28;5059201;28;45418;-66
2023/12/02 08:16:35;;;;;;;;;54.75;40.00;;;;;3.54;54.94;100971.56;5057705;28;46186;-65
2023/12/02 08:19:01;;;;;;;;;50.25;41.50;;;;;3.95;55.03;100997.97;5057395;28;45460;-65
2023/12/02 08:21:27;;;;;;;;;56.50;43.25;;;;;3.88;54.06;100977.84;5054881;28;45819;-65
2023/12/02 08:23:52;;;;;;;;;56.50;42.50;;;;;3.83;54.66;100969.94;5050074;28;45738;-65
2023/12/02 08:26:18;;;;;;;;;66.00;44.00;;;;;4.16;54.53;101006.44;5059318;28;45295;-65
2023/12/02 08:28:47;;;;;;;;;54.25;40.75;;;;;4.10;54.11;100994.97;5052983;28;45386;-65
2023/12/02 08:31:13;;;;;;;;;57.25;41.00;;;;;4.20;53.84;101021.28;5058456;28;45545;-66
2023/12/02 08:33:38;;;;;;;;;60.75;44.00;;;;;4.17;53.81;101020.28;5046429;28;45409;-65
2023/12/02 08:36:04;;;;;;;;;53.00;40.25;;;;;4.07;53.62;101013.91;5075052;27;47717;-65
2023/12/02 08:38:30;;;;;;;;;61.00;44.50;;;;;4.12;53.67;101027.91;5058601;28;45417;-65
2023/12/02 08:40:55;;;;;;;;;54.75;42.75;;;;;3.98;54.07;101016.19;5058537;28;45386;-65
2023/12/02 08:43:22;;;;;;;;;63.25;44.50;;;;;3.58;53.30;100963.94;5059282;28;45505;-64
2023/12/02 08:45:47;;;;;;;;;59.75;44.00;;;;;4.01;53.44;101039.63;5058215;28;46508;-66
2023/12/02 08:48:13;;;;;;;;;61.50;42.75;;;;;3.99;53.75;101041.31;5058606;28;45372;-65
2023/12/02 08:50:38;;;;;;;;;59.75;42.00;;;;;4.08;53.49;101038.13;5058322;28;45426;-65
2023/12/02 08:53:04;;;;;;;;;57.00;44.75;;;;;4.17;53.58;101044.47;5059202;28;45449;-65
2023/12/02 08:55:29;;;;;;;;;57.25;42.75;;;;;4.31;54.04;101047.53;5059401;28;45372;-66
2023/12/02 08:57:55;;;;;;;;;58.50;44.00;;;;;4.44;52.98;101056.59;5059839;28;45595;-65
2023/12/02 09:00:25;;;;;;;;;60.25;44.00;;;;;4.44;53.06;101038.44;5046009;28;45410;-67
2023/12/02 09:02:51;;;;;;;;;63.50;44.75;;;;;4.93;53.14;101055.50;5056433;28;45600;-65
2023/12/02 09:05:16;;;;;;;;;58.75;41.75;;;;;6.07;51.48;101050.88;5058152;28;45626;-66
2023/12/02 09:07:42;;;;;;;;;60.25;44.00;;;;;7.27;49.79;101066.66;5058149;28;45667;-65
2023/12/02 09:10:09;;;;;;;;;57.75;42.25;;;;;8.81;47.16;101063.31;5059022;28;45517;-65
2023/12/02 09:12:35;;;;;;;;;58.75;43.25;;;;;9.51;44.74;101058.13;5056867;28;45792;-64
2023/12/02 09:15:29;;;;;;;;;54.75;41.50;;;;;9.74;44.57;101045.28;5046830;28;45758;-65
2023/12/02 09:18:26;;;;;;;;;59.25;43.00;;;;;10.36;42.71;101064.22;5053082;28;45726;-67
2023/12/02 09:20:55;;;;;;;;;58.75;48.25;;;;;11.50;41.28;101075.38;5048423;28;45513;-65
2023/12/02 09:23:24;;;;;;;;;62.75;46.75;;;;;12.33;39.53;101017.78;5047051;28;45702;-66
2023/12/02 09:25:53;;;;;;;;;54.50;39.25;;;;;13.81;37.62;101074.31;5041634;28;46570;-66
2023/12/02 09:28:21;;;;;;;;;57.50;39.75;;;;;14.80;36.19;101077.94;5044328;28;45537;-67
2023/12/02 09:31:00;;;;;;;;;54.00;37.50;;;;;15.80;34.94;101033.63;5055438;28;45548;-66
2023/12/02 09:33:27;;;;;;;;;49.50;37.25;;;;;16.70;32.87;101041.81;5043774;28;45650;-66
2023/12/02 09:35:57;;;;;;;;;52.75;40.00;;;;;16.78;32.44;101041.72;5057556;28;45346;-66
2023/12/02 09:38:24;;;;;;;;;49.50;37.00;;;;;17.69;31.51;101072.53;5057550;28;45433;-67
2023/12/02 09:41:23;;;;;;;;;55.25;40.50;;;;;19.09;29.81;101067.31;5073030;28;45377;-67
2023/12/02 09:44:24;;;;;;;;;52.25;39.25;;;;;20.03;28.58;101062.75;5057521;28;45445;-66
2023/12/02 09:46:56;;;;;;;;;55.25;40.25;;;;;20.39;27.84;101070.44;5013967;28;45502;-67
2023/12/02 09:49:43;;;;;;;;;55.50;39.25;;;;;21.64;26.54;101068.66;5053371;28;45289;-67
2023/12/02 09:52:24;;;;;;;;;51.00;37.50;;;;;22.29;25.67;101067.88;5054769;28;45422;-65
2023/12/02 09:54:59;;;;;;;;;51.75;40.00;;;;;21.71;25.65;101072.84;5058762;28;45713;-64
2023/12/02 09:57:42;;;;;;;;;53.75;39.00;;;;;20.28;26.51;101036.22;5057782;28;45402;-66
2023/12/02 10:00:26;;;;;;;;;54.75;39.75;;;;;19.44;26.45;101038.88;5058199;28;45784;-67
2023/12/02 10:03:18;;;;;;;;;51.00;38.00;;;;;19.55;27.01;101086.34;5044250;28;45534;-66
2023/12/02 10:06:19;;;;;;;;;48.00;39.50;;;;;20.54;26.39;101087.66;5056521;28;45497;-64
2023/12/02 10:08:51;;;;;;;;;52.50;38.75;;;;;22.37;24.67;101086.22;5050437;28;45417;-68
2023/12/02 10:11:30;;;;;;;;;45.67;36.67;;;;;23.88;23.17;101080.44;5052051;28;45634;-67
2023/12/02 10:14:02;;;;;;;;;46.67;36.67;;;;;25.09;21.65;101073.44;5057490;28;45359;-68
2023/12/02 10:16:32;;;;;;;;;47.33;37.67;;;;;26.00;20.72;101077.41;5057770;28;45323;-66
2023/12/02 10:19:00;;;;;;;;;49.67;40.33;;;;;26.38;20.15;101066.25;5057233;28;46404;-66
2023/12/02 10:21:29;;;;;;;;;46.67;36.67;;;;;27.25;19.42;101085.22;5056809;28;45399;-66
2023/12/02 10:24:02;;;;;;;;;44.33;36.33;;;;;28.19;18.60;101073.84;5057176;28;46123;-68
2023/12/02 10:26:32;;;;;;;;;47.00;36.33;;;;;28.82;18.36;101076.78;5056893;27;45394;-69
2023/12/02 10:29:08;;;;;;;;;47.67;37.33;;;;;29.47;18.08;101065.03;5048462;28;46657;-65
2023/12/02 10:31:36;;;;;;;;;44.67;35.33;;;;;30.00;17.04;101063.81;5056538;28;45405;-65
2023/12/02 10:34:12;;;;;;;;;45.67;36.00;;;;;30.48;16.94;101065.66;5042923;28;45496;-66
2023/12/02 10:36:41;;;;;;;;;49.67;37.33;;;;;30.76;16.17;101066.22;5055627;28;45400;-65
2023/12/02 10:39:15;;;;;;;;;44.00;34.00;;;;;30.75;16.18;101045.56;5055867;28;45533;-65
2023/12/02 10:41:57;;;;;;;;;42.33;34.67;;;;;30.96;15.79;101070.94;5057948;27;45531;-64
2023/12/02 10:44:24;;;;;;;;;45.67;35.67;;;;;30.78;16.00;101029.13;5051297;28;45473;-66
2023/12/02 10:46:53;;;;;;;;;39.33;34.00;;;;;31.13;15.92;101064.19;5051184;28;45430;-65
2023/12/02 10:49:19;;;;;;;;;43.33;36.00;;;;;31.34;14.89;101072.44;5057474;28;46370;-65
2023/12/02 10:51:50;;;;;;;;;45.33;33.33;;;;;30.72;15.14;101062.88;5056172;28;45490;-67
2023/12/02 10:54:17;;;;;;;;;44.67;35.33;;;;;30.88;15.06;101081.53;5056910;28;45992;-66
2023/12/02 10:56:48;;;;;;;;;47.00;36.00;;;;;30.49;15.70;101069.22;5056985;28;45489;-67
2023/12/02 10:59:16;;;;;;;;;44.33;34.67;;;;;30.97;15.33;101042.09;5071721;27;47415;-66
2023/12/02 11:01:54;;;;;;;;;49.33;37.00;;;;;31.89;14.24;101065.28;5056578;28;45452;-66
2023/12/02 11:04:34;;;;;;;;;48.00;37.67;;;;;32.46;14.10;101079.50;5057845;28;45380;-66
2023/12/02 11:07:05;;;;;;;;;45.00;36.67;;;;;33.01;13.25;101071.19;5057527;28;45516;-67
2023/12/02 11:09:46;;;;;;;;;45.33;35.67;;;;;31.89;14.14;101067.09;5056112;28;46246;-66
2023/12/02 11:12:23;;;;;;;;;47.33;36.33;;;;;28.15;16.43;101071.44;5055915;28;45504;-67
2023/12/02 11:14:57;;;;;;;;;47.00;35.67;;;;;25.19;18.30;101055.94;5071607;28;45469;-68
2023/12/02 11:17:53;;;;;;;;;40.00;33.33;;;;;22.84;19.92;101088.69;5056747;28;45504;-66
2023/12/02 11:21:01;;;;;;;;;51.33;41.33;;;;;21.04;21.39;101085.06;5068791;27;47938;-65